createdAt,value
2018-11-29T00:01:43.396Z,100803.14
2018-11-29T00:04:09.385Z,100808.35
2018-11-29T00:06:36.061Z,100816.28
2018-11-29T00:09:02.021Z,100809.53
2018-11-29T00:11:28.011Z,100816.30
2018-11-29T00:13:53.994Z,100807.88
2018-11-29T00:16:19.972Z,100804.39
2018-11-29T00:18:45.950Z,100798.38
2018-11-29T00:21:12.029Z,100797.06
2018-11-29T00:23:38.004Z,100794.42
2018-11-29T00:26:03.991Z,100792.92
2018-11-29T00:28:29.971Z,100793.07
2018-11-29T00:30:55.972Z,100781.70
2018-11-29T00:33:21.955Z,100777.80
2018-11-29T00:35:47.996Z,100780.86
2018-11-29T00:38:13.950Z,100789.09
2018-11-29T00:40:39.904Z,100793.86
2018-11-29T00:43:05.858Z,100791.67
2018-11-29T00:45:31.832Z,100791.23
2018-11-29T00:47:57.811Z,100795.32
2018-11-29T00:50:23.786Z,100786.74
2018-11-29T00:52:49.749Z,100793.36
2018-11-29T00:55:15.731Z,100789.19
2018-11-29T00:57:41.704Z,100775.05
2018-11-29T01:00:07.673Z,100777.53
2018-11-29T01:02:33.677Z,100768.48
2018-11-29T01:04:59.658Z,100771.53
2018-11-29T01:07:25.671Z,100772.92
2018-11-29T01:09:51.666Z,100774.34
2018-11-29T01:12:17.628Z,100782.78
2018-11-29T01:14:43.590Z,100775.77
2018-11-29T01:17:09.583Z,100766.81
2018-11-29T01:19:35.553Z,100761.14
2018-11-29T01:22:01.536Z,100774.67
2018-11-29T01:24:27.532Z,100780.91
2018-11-29T01:26:53.533Z,100776.71
2018-11-29T01:29:19.504Z,100782.56
2018-11-29T01:31:45.495Z,100780.38
2018-11-29T01:34:11.449Z,100784.81
2018-11-29T01:36:37.420Z,100792.75
2018-11-29T01:39:03.400Z,100799.39
2018-11-29T01:41:29.378Z,100796.17
2018-11-29T01:43:55.349Z,100786.91
2018-11-29T01:46:21.347Z,100785.33
2018-11-29T01:48:47.331Z,100785.66
2018-11-29T01:51:13.307Z,100800.92
2018-11-29T01:53:39.263Z,100787.24
2018-11-29T01:56:05.225Z,100775.54
2018-11-29T01:58:31.227Z,100778.38
2018-11-29T02:00:57.322Z,100775.44
2018-11-29T02:03:23.322Z,100774.48
2018-11-29T02:05:49.314Z,100769.63
2018-11-29T02:08:15.296Z,100774.30
2018-11-29T02:10:41.253Z,100779.02
2018-11-29T02:13:07.216Z,100775.92
2018-11-29T02:15:35.341Z,100778.79
2018-11-29T02:18:01.304Z,100763.58
2018-11-29T02:20:27.281Z,100761.20
2018-11-29T02:22:53.239Z,100750.67
2018-11-29T02:25:19.197Z,100751.33
2018-11-29T02:27:45.189Z,100753.08
2018-11-29T02:30:11.175Z,100749.49
2018-11-29T02:32:37.163Z,100745.56
2018-11-29T02:35:03.148Z,100748.14
2018-11-29T02:37:29.144Z,100738.58
2018-11-29T02:39:55.100Z,100727.44
2018-11-29T02:42:21.076Z,100720.73
2018-11-29T02:44:47.049Z,100738.35
2018-11-29T02:47:13.037Z,100727.20
2018-11-29T02:54:45.813Z,100714.97
2018-11-29T02:57:11.800Z,100717.15
2018-11-29T02:59:37.781Z,100712.56
2018-11-29T03:02:03.790Z,100715.13
2018-11-29T03:04:29.748Z,100707.51
2018-11-29T03:06:55.743Z,100703.33
2018-11-29T03:09:21.700Z,100705.33
2018-11-29T03:11:47.719Z,100691.78
2018-11-29T03:14:13.677Z,100689.34
2018-11-29T03:16:39.660Z,100689.23
2018-11-29T03:19:05.640Z,100697.73
2018-11-29T03:21:31.617Z,100689.59
2018-11-29T03:23:57.607Z,100688.83
2018-11-29T03:26:23.589Z,100693.46
2018-11-29T03:28:49.569Z,100692.93
2018-11-29T03:31:15.557Z,100683.72
2018-11-29T03:33:41.538Z,100683.09
2018-11-29T03:36:07.511Z,100692.06
2018-11-29T03:38:33.498Z,100691.18
2018-11-29T03:40:59.468Z,100696.67
2018-11-29T03:43:25.443Z,100688.44
2018-11-29T03:45:51.406Z,100697.09
2018-11-29T03:48:17.387Z,100690.61
2018-11-29T03:50:43.401Z,100691.42
2018-11-29T03:53:09.394Z,100676.78
2018-11-29T03:55:35.373Z,100663.82
2018-11-29T03:58:01.332Z,100665.06
2018-11-29T04:00:27.314Z,100670.94
2018-11-29T04:02:53.313Z,100671.27
2018-11-29T04:05:19.301Z,100667.80
2018-11-29T04:07:45.272Z,100678.66
2018-11-29T04:10:11.237Z,100669.30
2018-11-29T04:12:37.212Z,100669.78
2018-11-29T04:15:03.223Z,100665.25
2018-11-29T04:17:29.216Z,100670.33
2018-11-29T04:19:55.183Z,100678.98
2018-11-29T04:22:21.143Z,100671.11
2018-11-29T04:24:47.151Z,100686.05
2018-11-29T04:27:13.109Z,100678.06
2018-11-29T04:29:39.160Z,100670.72
2018-11-29T04:32:05.143Z,100671.33
2018-11-29T04:34:31.138Z,100664.72
2018-11-29T04:39:31.074Z,100663.83
2018-11-29T04:41:57.049Z,100666.33
2018-11-29T04:44:23.009Z,100673.51
2018-11-29T04:49:21.707Z,100674.48
2018-11-29T04:51:47.672Z,100671.61
2018-11-29T04:54:13.710Z,100677.48
2018-11-29T04:56:39.693Z,100674.03
2018-11-29T04:59:05.687Z,100673.05
2018-11-29T05:01:31.640Z,100679.23
2018-11-29T05:03:57.628Z,100661.47
2018-11-29T05:06:23.700Z,100651.77
2018-11-29T05:08:49.690Z,100649.30
2018-11-29T05:11:15.672Z,100651.98
2018-11-29T05:13:41.687Z,100659.36
2018-11-29T05:16:07.655Z,100660.90
2018-11-29T05:18:33.631Z,100657.94
2018-11-29T05:20:59.594Z,100661.05
2018-11-29T05:23:25.590Z,100667.20
2018-11-29T05:25:51.544Z,100671.92
2018-11-29T05:28:17.555Z,100686.34
2018-11-29T05:30:43.526Z,100681.72
2018-11-29T05:33:09.528Z,100679.80
2018-11-29T05:35:35.497Z,100671.87
2018-11-29T05:38:01.460Z,100669.27
2018-11-29T05:40:27.418Z,100674.82
2018-11-29T05:42:53.380Z,100664.71
2018-11-29T05:45:19.351Z,100662.98
2018-11-29T05:47:45.323Z,100673.43
2018-11-29T05:50:11.295Z,100677.16
2018-11-29T05:52:37.300Z,100680.83
2018-11-29T05:55:03.277Z,100670.47
2018-11-29T05:57:29.243Z,100656.34
2018-11-29T05:59:55.228Z,100667.09
2018-11-29T06:02:21.201Z,100658.19
2018-11-29T06:04:47.180Z,100669.41
2018-11-29T06:07:13.160Z,100650.05
2018-11-29T06:09:39.149Z,100655.66
2018-11-29T06:12:05.129Z,100666.72
2018-11-29T06:14:31.105Z,100666.84
2018-11-29T06:16:57.067Z,100665.97
2018-11-29T06:19:23.041Z,100681.47
2018-11-29T06:21:49.017Z,100667.04
2018-11-29T06:24:15.047Z,100654.02
2018-11-29T06:26:41.034Z,100656.63
2018-11-29T06:29:07.046Z,100664.12
2018-11-29T06:31:33.100Z,100647.13
2018-11-29T06:33:59.103Z,100665.52
2018-11-29T06:36:25.067Z,100665.64
2018-11-29T06:38:51.052Z,100656.16
2018-11-29T06:41:17.038Z,100651.13
2018-11-29T06:43:43.030Z,100654.20
2018-11-29T06:51:14.018Z,100656.84
2018-11-29T06:53:40.019Z,100651.39
2018-11-29T06:56:06.019Z,100650.97
2018-11-29T06:58:31.999Z,100654.33
2018-11-29T07:00:57.984Z,100659.70
2018-11-29T07:03:28.744Z,100646.09
2018-11-29T07:05:49.962Z,100649.03
2018-11-29T07:08:15.920Z,100634.73
2018-11-29T07:10:41.887Z,100645.88
2018-11-29T07:13:07.870Z,100643.09
2018-11-29T07:15:33.853Z,100633.59
2018-11-29T07:17:59.814Z,100638.79
2018-11-29T07:20:25.794Z,100634.16
2018-11-29T07:22:51.755Z,100640.37
2018-11-29T07:25:17.744Z,100641.53
2018-11-29T07:27:43.763Z,100647.13
2018-11-29T07:30:09.747Z,100649.16
2018-11-29T07:32:35.726Z,100629.49
2018-11-29T07:35:01.718Z,100647.88
2018-11-29T07:37:27.698Z,100635.61
2018-11-29T07:39:53.694Z,100634.66
2018-11-29T07:42:19.673Z,100623.61
2018-11-29T07:44:45.653Z,100630.52
2018-11-29T07:47:11.628Z,100619.91
2018-11-29T07:49:37.586Z,100612.92
2018-11-29T07:52:03.549Z,100611.59
2018-11-29T07:54:29.528Z,100619.21
2018-11-29T07:56:55.487Z,100626.13
2018-11-29T07:59:21.460Z,100633.63
2018-11-29T08:01:47.468Z,100627.60
2018-11-29T08:04:13.448Z,100622.44
2018-11-29T08:06:42.896Z,100617.73
2018-11-29T08:09:08.877Z,100641.42
2018-11-29T08:11:34.835Z,100617.34
2018-11-29T08:14:00.809Z,100619.87
2018-11-29T08:16:26.790Z,100620.60
2018-11-29T08:18:52.770Z,100619.47
2018-11-29T08:21:18.750Z,100623.73
2018-11-29T08:23:44.713Z,100608.06
2018-11-29T08:26:10.673Z,100618.50
2018-11-29T08:28:36.643Z,100621.22
2018-11-29T08:31:02.631Z,100613.53
2018-11-29T08:33:28.593Z,100613.98
2018-11-29T08:38:26.299Z,100605.34
2018-11-29T08:40:52.273Z,100613.66
2018-11-29T08:43:18.287Z,100602.87
2018-11-29T08:45:44.264Z,100601.46
2018-11-29T08:48:10.241Z,100612.31
2018-11-29T08:50:36.239Z,100608.92
2018-11-29T08:53:02.238Z,100604.70
2018-11-29T08:55:28.248Z,100596.17
2018-11-29T08:57:54.260Z,100588.02
2018-11-29T09:00:20.229Z,100591.66
2018-11-29T09:02:46.491Z,100585.42
2018-11-29T09:05:12.478Z,100583.09
2018-11-29T09:07:38.432Z,100579.99
2018-11-29T09:10:04.376Z,100588.25
2018-11-29T09:12:30.340Z,100585.42
2018-11-29T09:14:56.309Z,100606.28
2018-11-29T09:17:22.263Z,100574.06
2018-11-29T09:19:48.218Z,100573.16
2018-11-29T09:22:14.170Z,100580.22
2018-11-29T09:24:40.123Z,100571.92
2018-11-29T09:27:06.292Z,100572.22
2018-11-29T09:29:32.282Z,100577.50
2018-11-29T09:31:58.286Z,100570.91
2018-11-29T09:34:24.268Z,100559.87
2018-11-29T09:36:50.235Z,100578.45
2018-11-29T09:39:16.208Z,100566.73
2018-11-29T09:41:42.205Z,100572.08
2018-11-29T09:44:08.188Z,100569.79
2018-11-29T09:46:37.541Z,100570.55
2018-11-29T09:49:03.512Z,100552.77
2018-11-29T09:51:29.484Z,100548.50
2018-11-29T09:53:55.457Z,100546.67
2018-11-29T09:56:21.520Z,100543.73
2018-11-29T09:58:47.495Z,100543.80
2018-11-29T10:01:13.477Z,100527.73
2018-11-29T10:03:39.441Z,100531.84
2018-11-29T10:06:05.437Z,100522.50
2018-11-29T10:08:31.424Z,100540.20
2018-11-29T10:10:58.594Z,100519.15
2018-11-29T10:13:24.627Z,100516.58
2018-11-29T10:15:50.632Z,100518.20
2018-11-29T10:18:16.629Z,100511.45
2018-11-29T10:20:42.725Z,100521.97
2018-11-29T10:23:08.721Z,100495.68
2018-11-29T10:25:34.701Z,100502.09
2018-11-29T10:28:00.671Z,100509.28
2018-11-29T10:30:26.628Z,100503.14
2018-11-29T10:32:52.636Z,100514.14
2018-11-29T10:35:18.643Z,100503.39
2018-11-29T10:37:44.630Z,100499.80
2018-11-29T10:40:10.605Z,100492.38
2018-11-29T10:42:36.599Z,100495.45
2018-11-29T10:45:02.554Z,100503.38
2018-11-29T10:47:28.520Z,100497.93
2018-11-29T10:49:54.492Z,100502.25
2018-11-29T10:52:20.484Z,100501.17
2018-11-29T10:54:46.487Z,100494.48
2018-11-29T10:57:12.490Z,100491.11
2018-11-29T10:59:38.481Z,100488.41
2018-11-29T11:02:04.491Z,100491.12
2018-11-29T11:04:30.459Z,100494.37
2018-11-29T11:06:56.472Z,100483.42
2018-11-29T11:09:25.777Z,100491.91
2018-11-29T11:11:51.771Z,100487.54
2018-11-29T11:14:17.757Z,100473.48
2018-11-29T11:16:43.764Z,100478.12
2018-11-29T11:19:09.801Z,100473.09
2018-11-29T11:21:35.832Z,100465.91
2018-11-29T11:24:01.813Z,100468.59
2018-11-29T11:26:32.020Z,100468.22
2018-11-29T11:28:58.621Z,100463.48
2018-11-29T11:31:31.071Z,100458.66
2018-11-29T11:33:52.608Z,100450.17
2018-11-29T11:36:18.583Z,100448.75
2018-11-29T11:38:44.590Z,100452.25
2018-11-29T11:41:10.569Z,100440.25
2018-11-29T11:43:36.553Z,100442.28
2018-11-29T11:46:02.589Z,100441.86
2018-11-29T11:48:28.584Z,100426.98
2018-11-29T11:50:54.563Z,100434.70
2018-11-29T11:53:20.551Z,100428.72
2018-11-29T11:55:53.304Z,100434.70
2018-11-29T11:58:12.935Z,100441.34
2018-11-29T12:00:38.937Z,100440.02
2018-11-29T12:03:05.211Z,100444.28
2018-11-29T12:05:31.203Z,100442.72
2018-11-29T12:07:57.208Z,100448.73
2018-11-29T12:10:24.067Z,100434.70
2018-11-29T12:12:50.063Z,100429.08
2018-11-29T12:15:16.051Z,100412.89
2018-11-29T12:17:42.044Z,100440.95
2018-11-29T12:20:08.028Z,100425.20
2018-11-29T12:22:34.017Z,100434.02
2018-11-29T12:24:59.978Z,100424.31
2018-11-29T12:27:25.941Z,100418.84
2018-11-29T12:29:51.935Z,100413.12
2018-11-29T12:32:17.927Z,100415.81
2018-11-29T12:34:43.899Z,100402.70
2018-11-29T12:37:09.870Z,100418.75
2018-11-29T12:39:35.853Z,100409.05
2018-11-29T12:42:01.826Z,100405.88
2018-11-29T12:44:27.822Z,100393.59
2018-11-29T12:46:53.792Z,100394.16
2018-11-29T12:49:19.793Z,100382.83
2018-11-29T12:51:45.799Z,100389.84
2018-11-29T12:54:11.786Z,100400.41
2018-11-29T12:56:37.889Z,100390.14
2018-11-29T12:59:04.562Z,100380.89
2018-11-29T13:01:31.575Z,100387.75
2018-11-29T13:03:58.361Z,100395.95
2018-11-29T13:06:24.320Z,100400.44
2018-11-29T13:08:50.335Z,100410.96
2018-11-29T13:11:16.351Z,100392.67
2018-11-29T13:13:42.316Z,100382.67
2018-11-29T13:16:08.332Z,100377.73
2018-11-29T13:18:34.859Z,100387.81
2018-11-29T13:21:00.884Z,100383.94
2018-11-29T13:23:26.908Z,100394.72
2018-11-29T13:25:52.886Z,100369.11
2018-11-29T13:28:18.908Z,100368.39
2018-11-29T13:30:46.088Z,100349.95
2018-11-29T13:33:15.719Z,100351.17
2018-11-29T13:35:41.877Z,100346.64
2018-11-29T13:38:07.873Z,100345.47
2018-11-29T13:40:33.879Z,100358.56
2018-11-29T13:42:59.952Z,100341.63
2018-11-29T13:45:26.002Z,100337.35
2018-11-29T13:47:57.316Z,100337.52
2018-11-29T13:50:24.560Z,100335.41
2018-11-29T13:52:50.682Z,100328.72
2018-11-29T13:55:16.740Z,100345.04
2018-11-29T13:57:42.771Z,100327.97
2018-11-29T14:00:08.795Z,100330.14
2018-11-29T14:02:34.774Z,100333.78
2018-11-29T14:05:00.903Z,100343.71
2018-11-29T14:07:26.911Z,100350.80
2018-11-29T14:09:52.917Z,100341.77
2018-11-29T14:12:23.983Z,100326.84
2018-11-29T14:14:49.963Z,100330.41
2018-11-29T14:17:15.956Z,100334.31
2018-11-29T14:19:41.955Z,100307.72
2018-11-29T14:22:07.925Z,100314.08
2018-11-29T14:24:33.896Z,100318.94
2018-11-29T14:26:59.891Z,100317.98
2018-11-29T14:29:25.869Z,100322.42
2018-11-29T14:31:51.956Z,100320.75
2018-11-29T14:34:18.023Z,100308.30
2018-11-29T14:36:44.051Z,100316.22
2018-11-29T14:39:10.088Z,100291.45
2018-11-29T14:41:36.073Z,100295.05
2018-11-29T14:44:02.091Z,100303.84
2018-11-29T14:46:28.081Z,100298.66
2018-11-29T14:48:54.064Z,100301.44
2018-11-29T14:51:20.048Z,100281.00
2018-11-29T14:53:46.034Z,100288.95
2018-11-29T14:56:12.064Z,100287.21
2018-11-29T14:58:37.993Z,100282.84
2018-11-29T15:01:05.383Z,100281.52
2018-11-29T15:08:38.488Z,100277.50
2018-11-29T15:11:04.495Z,100289.67
2018-11-29T15:13:30.547Z,100280.34
2018-11-29T15:15:57.436Z,100281.52
2018-11-29T15:18:23.431Z,100284.91
2018-11-29T15:20:49.444Z,100280.09
2018-11-29T15:23:15.414Z,100291.64
2018-11-29T15:25:41.410Z,100278.13
2018-11-29T15:28:07.383Z,100276.59
2018-11-29T15:30:33.356Z,100275.17
2018-11-29T15:32:59.335Z,100283.88
2018-11-29T15:35:25.389Z,100275.45
2018-11-29T15:37:53.075Z,100288.78
2018-11-29T15:40:19.078Z,100277.03
2018-11-29T15:42:45.226Z,100288.48
2018-11-29T15:47:43.174Z,100270.30
2018-11-29T15:50:10.241Z,100266.16
2018-11-29T15:52:36.354Z,100257.33
2018-11-29T15:55:02.332Z,100263.31
2018-11-29T15:57:34.673Z,100280.46
2018-11-29T15:59:55.971Z,100257.23
2018-11-29T16:02:21.998Z,100273.44
2018-11-29T16:04:48.586Z,100267.95
2018-11-29T16:07:14.601Z,100274.14
2018-11-29T16:09:41.724Z,100277.11
2018-11-29T16:12:08.791Z,100256.16
2018-11-29T16:14:35.825Z,100278.97
2018-11-29T16:17:01.916Z,100267.33
2018-11-29T16:19:27.899Z,100275.34
2018-11-29T16:21:53.924Z,100263.89
2018-11-29T16:24:19.938Z,100275.95
2018-11-29T16:26:46.692Z,100277.59
2018-11-29T16:29:12.668Z,100272.19
2018-11-29T16:31:38.742Z,100278.80
2018-11-29T16:34:04.750Z,100284.98
2018-11-29T16:36:30.742Z,100264.44
2018-11-29T16:38:57.547Z,100286.61
2018-11-29T16:41:23.529Z,100276.42
2018-11-29T16:43:49.553Z,100207.13
2018-11-29T16:46:16.409Z,100274.96
2018-11-29T16:48:42.401Z,100294.28
2018-11-29T16:51:09.068Z,100265.63
2018-11-29T16:53:35.156Z,100264.58
2018-11-29T16:56:01.150Z,100267.05
2018-11-29T16:58:27.144Z,100251.09
2018-11-29T17:00:53.131Z,100256.22
2018-11-29T17:03:19.159Z,100257.22
2018-11-29T17:05:45.148Z,100252.61
2018-11-29T17:08:11.720Z,100263.19
2018-11-29T17:10:37.681Z,100240.09
2018-11-29T17:13:03.663Z,100238.30
2018-11-29T17:15:29.657Z,100229.02
2018-11-29T17:17:55.620Z,100226.97
2018-11-29T17:20:21.586Z,100238.25
2018-11-29T17:22:47.580Z,100212.06
2018-11-29T17:25:13.678Z,100235.09
2018-11-29T17:27:39.820Z,100212.66
2018-11-29T17:30:05.832Z,100205.04
2018-11-29T17:32:31.852Z,100202.61
2018-11-29T17:34:58.055Z,100193.68
2018-11-29T17:37:24.098Z,100211.73
2018-11-29T17:39:50.139Z,100001.36
2018-11-29T17:42:16.227Z,100208.23
2018-11-29T17:44:42.236Z,100210.66
2018-11-29T17:49:41.071Z,100211.01
2018-11-29T17:52:14.167Z,100207.41
2018-11-29T17:54:43.261Z,100204.78
2018-11-29T17:57:11.504Z,100199.20
2018-11-29T17:59:37.691Z,100190.70
2018-11-29T18:02:03.752Z,100179.81
2018-11-29T18:04:31.781Z,100193.81
2018-11-29T18:06:59.734Z,100195.59
2018-11-29T18:09:25.742Z,100188.73
2018-11-29T18:11:51.744Z,100180.70
2018-11-29T18:14:19.883Z,100192.84
2018-11-29T18:16:51.605Z,100193.08
2018-11-29T18:19:20.306Z,100202.99
2018-11-29T18:21:46.405Z,100178.05
2018-11-29T18:24:17.448Z,100183.45
2018-11-29T18:26:48.824Z,100186.89
2018-11-29T18:29:16.589Z,100203.94
2018-11-29T18:31:42.801Z,100185.91
2018-11-29T18:34:08.752Z,100156.99
2018-11-29T18:36:35.964Z,100193.89
2018-11-29T18:39:02.118Z,100179.52
2018-11-29T18:41:28.160Z,100172.55
2018-11-29T18:43:55.063Z,100186.39
2018-11-29T18:46:24.904Z,100156.69
2018-11-29T18:48:54.937Z,100164.56
2018-11-29T18:51:20.913Z,100150.23
2018-11-29T18:53:47.909Z,100158.31
2018-11-29T18:56:13.906Z,100182.42
2018-11-29T18:58:39.885Z,100164.73
2018-11-29T19:01:05.869Z,100167.59
2018-11-29T19:03:31.853Z,100159.69
2018-11-29T19:05:57.848Z,100170.47
2018-11-29T19:08:23.870Z,100130.55
2018-11-29T19:10:49.855Z,100147.96
2018-11-29T19:13:15.856Z,100150.00
2018-11-29T19:15:41.821Z,100140.92
2018-11-29T19:18:10.567Z,100149.23
2018-11-29T19:20:34.051Z,100141.63
2018-11-29T19:23:01.014Z,100130.14
2018-11-29T19:25:27.153Z,100142.63
2018-11-29T19:27:53.830Z,100139.60
2018-11-29T19:30:20.002Z,100144.09
2018-11-29T19:32:46.137Z,100140.19
2018-11-29T19:35:12.208Z,100144.68
2018-11-29T19:37:38.243Z,100133.80
2018-11-29T19:40:04.270Z,100137.98
2018-11-29T19:42:30.301Z,100134.91
2018-11-29T19:44:56.300Z,100149.03
2018-11-29T19:47:22.313Z,100146.81
2018-11-29T19:49:48.359Z,100127.55
2018-11-29T19:52:14.381Z,100122.75
2018-11-29T19:54:40.376Z,100130.87
2018-11-29T19:57:06.398Z,100119.26
2018-11-29T20:02:04.009Z,100129.97
2018-11-29T20:04:30.002Z,100112.64
2018-11-29T20:06:55.976Z,100120.75
2018-11-29T20:09:21.968Z,100123.58
2018-11-29T20:11:48.023Z,100110.44
2018-11-29T20:14:14.036Z,100127.92
2018-11-29T20:16:40.134Z,100114.53
2018-11-29T20:19:06.156Z,100116.53
2018-11-29T20:21:36.012Z,100126.45
2018-11-29T20:24:02.033Z,100121.62
2018-11-29T20:26:28.132Z,100122.72
2018-11-29T20:28:54.155Z,100127.10
2018-11-29T20:31:20.120Z,100120.83
2018-11-29T20:33:46.152Z,100116.95
2018-11-29T20:36:12.169Z,100122.06
2018-11-29T20:41:15.998Z,100110.19
2018-11-29T20:43:42.651Z,100108.13
2018-11-29T20:46:13.195Z,100090.38
2018-11-29T20:48:41.210Z,100106.70
2018-11-29T20:51:10.610Z,100098.28
2018-11-29T20:53:36.599Z,100097.87
2018-11-29T20:56:02.593Z,100090.92
2018-11-29T20:58:28.571Z,100093.20
2018-11-29T21:00:54.529Z,100098.91
2018-11-29T21:03:20.504Z,100090.73
2018-11-29T21:05:46.486Z,100072.11
2018-11-29T21:08:12.478Z,100087.40
2018-11-29T21:10:38.469Z,100055.66
2018-11-29T21:13:04.456Z,100056.78
2018-11-29T21:15:30.448Z,100053.03
2018-11-29T21:17:56.438Z,100078.02
2018-11-29T21:20:22.468Z,100055.94
2018-11-29T21:22:51.583Z,100052.87
2018-11-29T21:25:17.587Z,100058.17
2018-11-29T21:27:43.571Z,100060.91
2018-11-29T21:30:09.581Z,100050.14
2018-11-29T21:32:35.572Z,100040.81
2018-11-29T21:35:01.637Z,100051.34
2018-11-29T21:37:27.629Z,100029.61
2018-11-29T21:39:53.626Z,100050.37
2018-11-29T21:42:19.604Z,100033.03
2018-11-29T21:44:45.578Z,100072.73
2018-11-29T21:47:11.557Z,100030.27
2018-11-29T21:49:37.580Z,100043.34
2018-11-29T21:52:03.562Z,100046.71
2018-11-29T21:54:29.558Z,100045.97
2018-11-29T21:56:55.552Z,100036.38
2018-11-29T21:59:21.549Z,100027.42
2018-11-29T22:01:47.539Z,100029.69
2018-11-29T22:04:13.509Z,100001.23
2018-11-29T22:06:39.496Z,100019.76
2018-11-29T22:09:05.490Z,100041.75
2018-11-29T22:11:31.484Z,100029.52
2018-11-29T22:13:57.460Z,100059.48
2018-11-29T22:16:23.460Z,100023.30
2018-11-29T22:18:49.483Z,100018.78
2018-11-29T22:21:15.517Z,100013.43
2018-11-29T22:23:41.505Z,100045.83
2018-11-29T22:26:07.496Z,100019.28
2018-11-29T22:28:33.485Z,100027.62
2018-11-29T22:30:59.468Z,100031.02
2018-11-29T22:33:25.458Z,100025.84
2018-11-29T22:35:51.448Z,100015.98
2018-11-29T22:38:17.460Z,100015.98
2018-11-29T22:40:43.479Z,100008.50
2018-11-29T22:43:09.452Z,100012.28
2018-11-29T22:45:35.425Z,100019.09
2018-11-29T22:48:01.403Z,99986.15
2018-11-29T22:50:27.382Z,99993.78
2018-11-29T22:52:53.388Z,99989.80
2018-11-29T22:55:19.374Z,100002.41
2018-11-29T22:57:45.338Z,99985.42
2018-11-29T23:00:11.297Z,99982.14
2018-11-29T23:02:37.291Z,99978.33
2018-11-29T23:05:03.289Z,100016.61
2018-11-29T23:07:29.281Z,99973.36
2018-11-29T23:09:55.249Z,99974.77
2018-11-29T23:12:21.228Z,99963.46
2018-11-29T23:14:47.221Z,99970.87
2018-11-29T23:17:13.183Z,99956.14
2018-11-29T23:19:39.163Z,99966.64
2018-11-29T23:22:05.165Z,99953.47
2018-11-29T23:24:31.140Z,99945.14
2018-11-29T23:26:57.167Z,99957.27
2018-11-29T23:29:23.129Z,99937.91
2018-11-29T23:31:49.107Z,99954.64
2018-11-29T23:34:20.910Z,99938.47
2018-11-29T23:36:46.908Z,99932.88
2018-11-29T23:39:12.891Z,99941.16
2018-11-29T23:41:38.865Z,99933.43
2018-11-29T23:44:04.837Z,99943.59
2018-11-29T23:46:30.788Z,99931.09
2018-11-29T23:48:56.780Z,99933.56
2018-11-29T23:51:22.763Z,99919.95
2018-11-29T23:53:48.749Z,99904.33
2018-11-29T23:56:14.722Z,99931.55
2018-11-29T23:58:40.688Z,99931.64
